Aérodrome :
LOGIN :

S'inscrire | Disclaimer

   EN    FR    IT 

 










Légende :    VFR   VFR Marginal   IFR   IFR Intensif   IFR Très Intensif
Visi : 
Plafond : 
>= 8 km
>= 3000ft
5 à 8 km
1000 à 3000 ft
1500m à 5 km
500 à 1000 ft
800 à 1500m
200 à 500 ft
< 800m
< 200 ft
Symboles :   Orages  Brouillard  Fortes neiges  Fortes précipitations  Vent > 20 kt
SIGMETs :   Divers  Orages  Givrage  Turbulence  Onde Orograph.  Cendres Volcan.







- Altitude de l'aérodrome : 461 ft
- Code IATA : WIE


ETOU - Wiesbaden Army

DERNIER METAR :
  • 242356Z AUTO 00000KT 9999 CLR 10/07 A2990 RMK AO2 SLP127 T01030070 10173 20098 57012 RVRNO $

METARs EXPIRÉS :
  • 242256Z AUTO 00000KT 9999 CLR 12/07 A2991 RMK AO2 SLP129 T01180071 402040083 RVRNO $
  • 242156Z AUTO 00000KT 9999 CLR 13/07 A2992 RMK AO2 SLP133 T01340070 RVRNO $

TAF TAF ETOU
Valide du 24 à 19h jusqu'au 26 à 01h UTC


241908Z 2419/2601 25009KT 9999 FEW040 QNH2985INS
TEMPO 2501/2506 25012G20KT
BECMG 2505/2506 26012G20KT 9999 SCT040 BKN080 QNH2985INS
TEMPO 2513/2517 9000 -SHRA
BECMG 2516/2517 27009KT 9999 SCT050 QNH2990INS TX23/2511Z TN08/2503Z
Pas de NOTAMs connus pour ce terrain.



MET'MAP, la Météo Aéronautique d'un coup d'oeil ! - Copyright ORBIFLY Décembre 2007 - Disclaimer

ORBIFLY MET'MAP TEAM :

Programmation & Développement : Alexandra Zaïnal
Conception & Développement : Baudouin d'Aumeries
Co-Programmation & Développement : Marc-Olivier Méhu
Soutien technique & logistique : Manuel Goepfert

Contact : metmap@orbifly.com




SOURCES & CREDITS :

   NOAA